sensor_id;sensor_type;location;lat;lon;timestamp;temperature;humidity
24162;DHT22;12318;51.262;7.066;2022-12-07T00:01:15;5.50;99.90
24162;DHT22;12318;51.262;7.066;2022-12-07T00:03:41;5.50;99.90
24162;DHT22;12318;51.262;7.066;2022-12-07T00:06:08;5.60;99.90
24162;DHT22;12318;51.262;7.066;2022-12-07T00:08:35;5.50;99.90
24162;DHT22;12318;51.262;7.066;2022-12-07T00:11:07;5.50;99.90
24162;DHT22;12318;51.262;7.066;2022-12-07T00:13:34;5.50;99.90
24162;DHT22;12318;51.262;7.066;2022-12-07T00:16:09;5.50;99.90
24162;DHT22;12318;51.262;7.066;2022-12-07T00:18:35;5.40;99.90
24162;DHT22;12318;51.262;7.066;2022-12-07T00:21:13;5.50;99.90
24162;DHT22;12318;51.262;7.066;2022-12-07T00:23:40;5.40;99.90
24162;DHT22;12318;51.262;7.066;2022-12-07T00:26:17;5.50;99.90
24162;DHT22;12318;51.262;7.066;2022-12-07T00:28:48;5.40;99.90
24162;DHT22;12318;51.262;7.066;2022-12-07T00:31:15;5.40;99.90
24162;DHT22;12318;51.262;7.066;2022-12-07T00:33:41;5.40;99.90
24162;DHT22;12318;51.262;7.066;2022-12-07T00:36:10;5.40;99.90
24162;DHT22;12318;51.262;7.066;2022-12-07T00:38:37;5.40;99.90
24162;DHT22;12318;51.262;7.066;2022-12-07T00:41:14;5.50;99.90
24162;DHT22;12318;51.262;7.066;2022-12-07T00:43:42;5.40;99.90
24162;DHT22;12318;51.262;7.066;2022-12-07T00:46:09;5.40;99.90
24162;DHT22;12318;51.262;7.066;2022-12-07T00:48:36;5.40;99.90
24162;DHT22;12318;51.262;7.066;2022-12-07T00:51:03;5.50;99.90
24162;DHT22;12318;51.262;7.066;2022-12-07T00:53:29;5.50;99.90
24162;DHT22;12318;51.262;7.066;2022-12-07T00:55:55;5.50;99.90
24162;DHT22;12318;51.262;7.066;2022-12-07T00:58:22;5.50;99.90
24162;DHT22;12318;51.262;7.066;2022-12-07T01:00:48;5.40;99.90
24162;DHT22;12318;51.262;7.066;2022-12-07T01:03:15;5.50;99.90
24162;DHT22;12318;51.262;7.066;2022-12-07T01:05:51;5.40;99.90
24162;DHT22;12318;51.262;7.066;2022-12-07T01:08:17;5.50;99.90
24162;DHT22;12318;51.262;7.066;2022-12-07T01:10:43;5.50;99.90
24162;DHT22;12318;51.262;7.066;2022-12-07T01:13:09;5.40;99.90
24162;DHT22;12318;51.262;7.066;2022-12-07T01:15:39;5.50;99.90
24162;DHT22;12318;51.262;7.066;2022-12-07T01:18:05;5.50;99.90
24162;DHT22;12318;51.262;7.066;2022-12-07T01:20:31;5.50;99.90
24162;DHT22;12318;51.262;7.066;2022-12-07T01:22:57;5.50;99.90
24162;DHT22;12318;51.262;7.066;2022-12-07T01:25:22;5.50;99.90
24162;DHT22;12318;51.262;7.066;2022-12-07T01:27:48;5.50;99.90
24162;DHT22;12318;51.262;7.066;2022-12-07T01:30:14;5.50;99.90
24162;DHT22;12318;51.262;7.066;2022-12-07T01:32:40;5.40;99.90
24162;DHT22;12318;51.262;7.066;2022-12-07T01:35:05;5.40;99.90
24162;DHT22;12318;51.262;7.066;2022-12-07T01:37:36;5.50;99.90
24162;DHT22;12318;51.262;7.066;2022-12-07T01:40:06;5.50;99.90
24162;DHT22;12318;51.262;7.066;2022-12-07T01:42:33;5.50;99.90
24162;DHT22;12318;51.262;7.066;2022-12-07T01:47:46;5.50;99.90
24162;DHT22;12318;51.262;7.066;2022-12-07T01:50:13;5.50;99.90
24162;DHT22;12318;51.262;7.066;2022-12-07T01:52:40;5.50;99.90
24162;DHT22;12318;51.262;7.066;2022-12-07T01:55:10;5.50;99.90
24162;DHT22;12318;51.262;7.066;2022-12-07T01:57:41;5.50;99.90
24162;DHT22;12318;51.262;7.066;2022-12-07T02:00:14;5.50;99.90
24162;DHT22;12318;51.262;7.066;2022-12-07T02:03:01;5.50;99.90
24162;DHT22;12318;51.262;7.066;2022-12-07T02:05:30;5.50;99.90
24162;DHT22;12318;51.262;7.066;2022-12-07T02:07:57;5.40;99.90
24162;DHT22;12318;51.262;7.066;2022-12-07T02:10:26;5.40;99.90
24162;DHT22;12318;51.262;7.066;2022-12-07T02:13:03;5.40;99.90
24162;DHT22;12318;51.262;7.066;2022-12-07T02:29:33;5.50;99.90
24162;DHT22;12318;51.262;7.066;2022-12-07T02:34:32;5.40;99.90
24162;DHT22;12318;51.262;7.066;2022-12-07T02:37:03;5.40;99.90
24162;DHT22;12318;51.262;7.066;2022-12-07T02:39:44;5.40;99.90
24162;DHT22;12318;51.262;7.066;2022-12-07T02:42:17;5.40;99.90
24162;DHT22;12318;51.262;7.066;2022-12-07T02:44:44;5.40;99.90
24162;DHT22;12318;51.262;7.066;2022-12-07T02:47:13;5.40;99.90
24162;DHT22;12318;51.262;7.066;2022-12-07T02:49:40;5.40;99.90
24162;DHT22;12318;51.262;7.066;2022-12-07T02:52:07;5.40;99.90
24162;DHT22;12318;51.262;7.066;2022-12-07T02:54:32;5.30;99.90
24162;DHT22;12318;51.262;7.066;2022-12-07T02:57:22;5.40;99.90
24162;DHT22;12318;51.262;7.066;2022-12-07T03:06:08;5.40;99.90
24162;DHT22;12318;51.262;7.066;2022-12-07T03:09:13;5.40;99.90
24162;DHT22;12318;51.262;7.066;2022-12-07T03:11:52;5.40;99.90
24162;DHT22;12318;51.262;7.066;2022-12-07T03:14:30;5.30;99.90
24162;DHT22;12318;51.262;7.066;2022-12-07T03:17:20;5.40;99.90
24162;DHT22;12318;51.262;7.066;2022-12-07T03:19:49;5.30;99.90
24162;DHT22;12318;51.262;7.066;2022-12-07T03:22:17;5.40;99.90
24162;DHT22;12318;51.262;7.066;2022-12-07T03:24:57;5.40;99.90
24162;DHT22;12318;51.262;7.066;2022-12-07T03:27:26;5.40;99.90
24162;DHT22;12318;51.262;7.066;2022-12-07T03:30:14;5.30;99.90
24162;DHT22;12318;51.262;7.066;2022-12-07T03:35:27;5.30;99.90
24162;DHT22;12318;51.262;7.066;2022-12-07T03:38:04;5.30;99.90
24162;DHT22;12318;51.262;7.066;2022-12-07T03:40:39;5.40;99.90
24162;DHT22;12318;51.262;7.066;2022-12-07T03:43:06;5.30;99.90
24162;DHT22;12318;51.262;7.066;2022-12-07T03:45:41;5.20;99.90
24162;DHT22;12318;51.262;7.066;2022-12-07T03:50:46;5.30;99.90
24162;DHT22;12318;51.262;7.066;2022-12-07T03:53:15;5.30;99.90
24162;DHT22;12318;51.262;7.066;2022-12-07T03:55:44;5.30;99.90
24162;DHT22;12318;51.262;7.066;2022-12-07T03:58:17;5.30;99.90
24162;DHT22;12318;51.262;7.066;2022-12-07T04:00:46;5.20;99.90
24162;DHT22;12318;51.262;7.066;2022-12-07T04:03:11;5.20;99.90
24162;DHT22;12318;51.262;7.066;2022-12-07T04:05:38;5.10;99.90
24162;DHT22;12318;51.262;7.066;2022-12-07T04:08:04;5.20;99.90
24162;DHT22;12318;51.262;7.066;2022-12-07T04:10:30;5.20;99.90
24162;DHT22;12318;51.262;7.066;2022-12-07T04:12:56;5.20;99.90
24162;DHT22;12318;51.262;7.066;2022-12-07T04:15:22;5.20;99.90
24162;DHT22;12318;51.262;7.066;2022-12-07T04:17:48;5.10;99.90
24162;DHT22;12318;51.262;7.066;2022-12-07T04:20:15;5.20;99.90
24162;DHT22;12318;51.262;7.066;2022-12-07T04:22:40;5.20;99.90
24162;DHT22;12318;51.262;7.066;2022-12-07T04:25:06;5.10;99.90
24162;DHT22;12318;51.262;7.066;2022-12-07T04:27:32;5.10;99.90
24162;DHT22;12318;51.262;7.066;2022-12-07T04:29:58;5.20;99.90
24162;DHT22;12318;51.262;7.066;2022-12-07T04:32:24;5.20;99.90
24162;DHT22;12318;51.262;7.066;2022-12-07T04:34:50;5.20;99.90
24162;DHT22;12318;51.262;7.066;2022-12-07T04:37:15;5.20;99.90
24162;DHT22;12318;51.262;7.066;2022-12-07T04:39:43;5.10;99.90
24162;DHT22;12318;51.262;7.066;2022-12-07T04:42:11;5.10;99.90
24162;DHT22;12318;51.262;7.066;2022-12-07T04:44:38;5.10;99.90
24162;DHT22;12318;51.262;7.066;2022-12-07T04:47:03;5.10;99.90
24162;DHT22;12318;51.262;7.066;2022-12-07T04:49:29;5.10;99.90
24162;DHT22;12318;51.262;7.066;2022-12-07T04:51:55;5.20;99.90
24162;DHT22;12318;51.262;7.066;2022-12-07T04:54:21;5.20;99.90
24162;DHT22;12318;51.262;7.066;2022-12-07T04:56:47;5.10;99.90
24162;DHT22;12318;51.262;7.066;2022-12-07T04:59:14;5.20;99.90
24162;DHT22;12318;51.262;7.066;2022-12-07T05:01:41;5.20;99.90
24162;DHT22;12318;51.262;7.066;2022-12-07T05:04:07;5.20;99.90
24162;DHT22;12318;51.262;7.066;2022-12-07T05:06:33;5.20;99.90
24162;DHT22;12318;51.262;7.066;2022-12-07T05:08:59;5.20;99.90
24162;DHT22;12318;51.262;7.066;2022-12-07T05:11:25;5.20;99.90
24162;DHT22;12318;51.262;7.066;2022-12-07T05:14:19;5.00;99.90
24162;DHT22;12318;51.262;7.066;2022-12-07T05:16:47;5.00;99.90
24162;DHT22;12318;51.262;7.066;2022-12-07T05:19:14;5.00;99.90
24162;DHT22;12318;51.262;7.066;2022-12-07T05:21:40;5.00;99.90
24162;DHT22;12318;51.262;7.066;2022-12-07T05:24:07;5.00;99.90
24162;DHT22;12318;51.262;7.066;2022-12-07T05:26:33;5.00;99.90
24162;DHT22;12318;51.262;7.066;2022-12-07T05:28:59;4.90;99.90
24162;DHT22;12318;51.262;7.066;2022-12-07T05:31:26;4.90;99.90
24162;DHT22;12318;51.262;7.066;2022-12-07T05:33:52;4.90;99.90
24162;DHT22;12318;51.262;7.066;2022-12-07T05:36:18;4.90;99.90
24162;DHT22;12318;51.262;7.066;2022-12-07T05:38:44;4.90;99.90
24162;DHT22;12318;51.262;7.066;2022-12-07T05:41:14;4.90;99.90
24162;DHT22;12318;51.262;7.066;2022-12-07T05:43:58;5.00;99.90
24162;DHT22;12318;51.262;7.066;2022-12-07T05:46:24;5.00;99.90
24162;DHT22;12318;51.262;7.066;2022-12-07T05:48:50;5.00;99.90
24162;DHT22;12318;51.262;7.066;2022-12-07T05:51:17;5.00;99.90
24162;DHT22;12318;51.262;7.066;2022-12-07T05:53:42;4.90;99.90
24162;DHT22;12318;51.262;7.066;2022-12-07T05:56:08;4.90;99.90
24162;DHT22;12318;51.262;7.066;2022-12-07T05:58:34;4.90;99.90
24162;DHT22;12318;51.262;7.066;2022-12-07T06:01:18;5.00;99.90
24162;DHT22;12318;51.262;7.066;2022-12-07T06:03:44;5.00;99.90
24162;DHT22;12318;51.262;7.066;2022-12-07T06:06:11;4.90;99.90
24162;DHT22;12318;51.262;7.066;2022-12-07T06:08:36;4.90;99.90
24162;DHT22;12318;51.262;7.066;2022-12-07T06:11:02;4.90;99.90
24162;DHT22;12318;51.262;7.066;2022-12-07T06:13:46;4.90;99.90
24162;DHT22;12318;51.262;7.066;2022-12-07T06:16:12;4.90;99.90
24162;DHT22;12318;51.262;7.066;2022-12-07T06:18:38;4.90;99.90
24162;DHT22;12318;51.262;7.066;2022-12-07T06:21:04;4.90;99.90
24162;DHT22;12318;51.262;7.066;2022-12-07T06:23:29;4.90;99.90
24162;DHT22;12318;51.262;7.066;2022-12-07T06:25:55;4.90;99.90
24162;DHT22;12318;51.262;7.066;2022-12-07T06:28:21;4.90;99.90
24162;DHT22;12318;51.262;7.066;2022-12-07T06:30:47;4.90;99.90
24162;DHT22;12318;51.262;7.066;2022-12-07T06:33:12;4.90;99.90
24162;DHT22;12318;51.262;7.066;2022-12-07T06:35:38;4.80;99.90
24162;DHT22;12318;51.262;7.066;2022-12-07T06:38:04;4.80;99.90
24162;DHT22;12318;51.262;7.066;2022-12-07T06:40:30;4.80;99.90
24162;DHT22;12318;51.262;7.066;2022-12-07T06:42:55;4.80;99.90
24162;DHT22;12318;51.262;7.066;2022-12-07T06:45:21;4.80;99.90
24162;DHT22;12318;51.262;7.066;2022-12-07T06:47:47;4.80;99.90
24162;DHT22;12318;51.262;7.066;2022-12-07T06:50:13;4.80;99.90
24162;DHT22;12318;51.262;7.066;2022-12-07T06:52:38;4.80;99.90
24162;DHT22;12318;51.262;7.066;2022-12-07T06:55:04;4.80;99.90
24162;DHT22;12318;51.262;7.066;2022-12-07T06:57:30;4.90;99.90
24162;DHT22;12318;51.262;7.066;2022-12-07T06:59:56;4.80;99.90
24162;DHT22;12318;51.262;7.066;2022-12-07T07:02:22;4.80;99.90
24162;DHT22;12318;51.262;7.066;2022-12-07T07:04:47;4.90;99.90
24162;DHT22;12318;51.262;7.066;2022-12-07T07:07:15;4.90;99.90
24162;DHT22;12318;51.262;7.066;2022-12-07T07:09:41;4.80;99.90
24162;DHT22;12318;51.262;7.066;2022-12-07T07:12:10;4.80;99.90
24162;DHT22;12318;51.262;7.066;2022-12-07T07:14:36;4.90;99.90
24162;DHT22;12318;51.262;7.066;2022-12-07T07:17:02;4.80;99.90
24162;DHT22;12318;51.262;7.066;2022-12-07T07:19:27;4.80;99.90
24162;DHT22;12318;51.262;7.066;2022-12-07T07:22:02;4.80;99.90
24162;DHT22;12318;51.262;7.066;2022-12-07T07:24:36;4.70;99.90
24162;DHT22;12318;51.262;7.066;2022-12-07T07:27:07;4.80;99.90
24162;DHT22;12318;51.262;7.066;2022-12-07T07:29:33;4.80;99.90
24162;DHT22;12318;51.262;7.066;2022-12-07T07:32:20;4.80;99.90
24162;DHT22;12318;51.262;7.066;2022-12-07T07:34:47;4.80;99.90
24162;DHT22;12318;51.262;7.066;2022-12-07T07:37:19;4.80;99.90
24162;DHT22;12318;51.262;7.066;2022-12-07T07:39:52;4.80;99.90
24162;DHT22;12318;51.262;7.066;2022-12-07T07:42:18;4.80;99.90
24162;DHT22;12318;51.262;7.066;2022-12-07T07:44:47;4.80;99.90
24162;DHT22;12318;51.262;7.066;2022-12-07T07:47:16;4.90;99.90
24162;DHT22;12318;51.262;7.066;2022-12-07T07:49:45;4.80;99.90
24162;DHT22;12318;51.262;7.066;2022-12-07T07:52:11;4.90;99.90
24162;DHT22;12318;51.262;7.066;2022-12-07T07:54:36;4.80;99.90
24162;DHT22;12318;51.262;7.066;2022-12-07T07:59:56;4.70;99.90
24162;DHT22;12318;51.262;7.066;2022-12-07T08:02:36;4.80;99.90
24162;DHT22;12318;51.262;7.066;2022-12-07T08:05:05;4.70;99.90
24162;DHT22;12318;51.262;7.066;2022-12-07T08:07:52;4.70;99.90
24162;DHT22;12318;51.262;7.066;2022-12-07T08:10:18;4.70;99.90
24162;DHT22;12318;51.262;7.066;2022-12-07T08:12:51;4.70;99.90
24162;DHT22;12318;51.262;7.066;2022-12-07T08:15:37;4.70;99.90
24162;DHT22;12318;51.262;7.066;2022-12-07T08:18:07;4.80;99.90
24162;DHT22;12318;51.262;7.066;2022-12-07T08:20:34;4.80;99.90
24162;DHT22;12318;51.262;7.066;2022-12-07T08:23:00;4.80;99.90
24162;DHT22;12318;51.262;7.066;2022-12-07T08:25:29;4.80;99.90
24162;DHT22;12318;51.262;7.066;2022-12-07T08:28:19;4.90;99.90
24162;DHT22;12318;51.262;7.066;2022-12-07T08:30:45;4.80;99.90
24162;DHT22;12318;51.262;7.066;2022-12-07T08:33:11;4.90;99.90
24162;DHT22;12318;51.262;7.066;2022-12-07T08:36:00;4.90;99.90
24162;DHT22;12318;51.262;7.066;2022-12-07T08:38:25;4.90;99.90
24162;DHT22;12318;51.262;7.066;2022-12-07T08:40:55;5.00;99.90
24162;DHT22;12318;51.262;7.066;2022-12-07T08:43:29;5.00;99.90
24162;DHT22;12318;51.262;7.066;2022-12-07T08:46:28;4.90;99.90
24162;DHT22;12318;51.262;7.066;2022-12-07T08:51:39;4.90;99.90
24162;DHT22;12318;51.262;7.066;2022-12-07T08:54:09;5.00;99.90
24162;DHT22;12318;51.262;7.066;2022-12-07T08:56:56;5.10;99.90
24162;DHT22;12318;51.262;7.066;2022-12-07T08:59:25;5.10;99.90
24162;DHT22;12318;51.262;7.066;2022-12-07T09:02:02;5.20;99.90
24162;DHT22;12318;51.262;7.066;2022-12-07T09:04:48;5.10;99.90
24162;DHT22;12318;51.262;7.066;2022-12-07T09:07:18;5.10;99.90
24162;DHT22;12318;51.262;7.066;2022-12-07T09:09:55;5.10;99.90
24162;DHT22;12318;51.262;7.066;2022-12-07T09:12:29;5.10;99.90
24162;DHT22;12318;51.262;7.066;2022-12-07T09:14:57;5.00;99.90
24162;DHT22;12318;51.262;7.066;2022-12-07T09:17:26;5.10;99.90
24162;DHT22;12318;51.262;7.066;2022-12-07T09:20:03;5.10;99.90
24162;DHT22;12318;51.262;7.066;2022-12-07T09:22:40;5.20;99.90
24162;DHT22;12318;51.262;7.066;2022-12-07T09:25:22;5.20;99.90
24162;DHT22;12318;51.262;7.066;2022-12-07T09:27:57;5.20;99.90
24162;DHT22;12318;51.262;7.066;2022-12-07T09:30:34;5.20;99.90
24162;DHT22;12318;51.262;7.066;2022-12-07T09:33:14;5.20;99.90
24162;DHT22;12318;51.262;7.066;2022-12-07T09:35:51;5.20;99.90
24162;DHT22;12318;51.262;7.066;2022-12-07T09:38:26;5.30;99.90
24162;DHT22;12318;51.262;7.066;2022-12-07T09:41:03;5.20;99.90
24162;DHT22;12318;51.262;7.066;2022-12-07T09:43:57;5.30;99.90
24162;DHT22;12318;51.262;7.066;2022-12-07T09:46:28;5.30;99.90
24162;DHT22;12318;51.262;7.066;2022-12-07T09:48:58;5.20;99.90
24162;DHT22;12318;51.262;7.066;2022-12-07T09:51:24;5.20;99.90
24162;DHT22;12318;51.262;7.066;2022-12-07T09:53:53;5.10;99.90
24162;DHT22;12318;51.262;7.066;2022-12-07T09:56:20;5.20;99.90
24162;DHT22;12318;51.262;7.066;2022-12-07T09:58:49;5.10;99.90
24162;DHT22;12318;51.262;7.066;2022-12-07T10:01:21;5.10;99.90
24162;DHT22;12318;51.262;7.066;2022-12-07T10:04:10;5.20;99.90
24162;DHT22;12318;51.262;7.066;2022-12-07T10:06:56;5.20;99.90
24162;DHT22;12318;51.262;7.066;2022-12-07T10:09:27;5.10;99.90
24162;DHT22;12318;51.262;7.066;2022-12-07T10:12:10;5.20;99.90
24162;DHT22;12318;51.262;7.066;2022-12-07T10:15:03;5.30;99.90
24162;DHT22;12318;51.262;7.066;2022-12-07T10:17:38;5.30;99.90
24162;DHT22;12318;51.262;7.066;2022-12-07T10:25:21;5.30;99.90
24162;DHT22;12318;51.262;7.066;2022-12-07T10:27:58;5.50;99.90
24162;DHT22;12318;51.262;7.066;2022-12-07T10:30:27;5.50;99.90
24162;DHT22;12318;51.262;7.066;2022-12-07T10:32:53;5.40;99.90
24162;DHT22;12318;51.262;7.066;2022-12-07T10:37:50;5.30;99.90
24162;DHT22;12318;51.262;7.066;2022-12-07T10:40:34;5.30;99.90
24162;DHT22;12318;51.262;7.066;2022-12-07T10:48:46;5.30;99.90
24162;DHT22;12318;51.262;7.066;2022-12-07T10:51:40;5.20;99.90
24162;DHT22;12318;51.262;7.066;2022-12-07T11:00:23;5.40;99.90
24162;DHT22;12318;51.262;7.066;2022-12-07T11:03:17;5.50;99.90
24162;DHT22;12318;51.262;7.066;2022-12-07T11:06:05;5.50;99.90
24162;DHT22;12318;51.262;7.066;2022-12-07T11:12:06;5.60;99.90
24162;DHT22;12318;51.262;7.066;2022-12-07T11:21:14;5.90;99.90
24162;DHT22;12318;51.262;7.066;2022-12-07T11:26:24;5.90;99.90
24162;DHT22;12318;51.262;7.066;2022-12-07T11:37:32;5.80;99.90
24162;DHT22;12318;51.262;7.066;2022-12-07T11:45:44;5.70;99.90
24162;DHT22;12318;51.262;7.066;2022-12-07T11:48:31;5.70;99.90
24162;DHT22;12318;51.262;7.066;2022-12-07T11:51:07;5.70;99.90
24162;DHT22;12318;51.262;7.066;2022-12-07T11:53:45;5.80;99.90
24162;DHT22;12318;51.262;7.066;2022-12-07T11:56:15;5.80;99.90
24162;DHT22;12318;51.262;7.066;2022-12-07T12:07:00;6.00;99.90
24162;DHT22;12318;51.262;7.066;2022-12-07T12:09:41;5.90;99.90
24162;DHT22;12318;51.262;7.066;2022-12-07T12:18:28;6.00;99.90
24162;DHT22;12318;51.262;7.066;2022-12-07T12:21:12;6.10;99.90
24162;DHT22;12318;51.262;7.066;2022-12-07T12:23:45;6.00;99.90
24162;DHT22;12318;51.262;7.066;2022-12-07T12:26:26;6.00;99.90
24162;DHT22;12318;51.262;7.066;2022-12-07T12:29:05;5.90;99.90
24162;DHT22;12318;51.262;7.066;2022-12-07T12:31:40;5.80;99.90
24162;DHT22;12318;51.262;7.066;2022-12-07T12:34:30;5.70;99.90
24162;DHT22;12318;51.262;7.066;2022-12-07T12:36:59;5.70;99.90
24162;DHT22;12318;51.262;7.066;2022-12-07T12:39:25;5.80;99.90
24162;DHT22;12318;51.262;7.066;2022-12-07T12:42:18;6.00;99.90
24162;DHT22;12318;51.262;7.066;2022-12-07T12:48:51;6.00;99.90
24162;DHT22;12318;51.262;7.066;2022-12-07T12:54:04;5.80;99.90
24162;DHT22;12318;51.262;7.066;2022-12-07T13:02:58;5.90;99.90
24162;DHT22;12318;51.262;7.066;2022-12-07T13:05:31;5.90;99.90
24162;DHT22;12318;51.262;7.066;2022-12-07T13:08:02;6.10;99.90
24162;DHT22;12318;51.262;7.066;2022-12-07T13:10:52;6.00;99.90
24162;DHT22;12318;51.262;7.066;2022-12-07T13:18:40;6.10;99.90
24162;DHT22;12318;51.262;7.066;2022-12-07T13:24:07;6.00;99.90
24162;DHT22;12318;51.262;7.066;2022-12-07T13:26:42;6.10;99.90
24162;DHT22;12318;51.262;7.066;2022-12-07T13:29:20;5.80;99.90
24162;DHT22;12318;51.262;7.066;2022-12-07T13:38:22;4.70;99.90
24162;DHT22;12318;51.262;7.066;2022-12-07T13:41:21;4.70;99.90
24162;DHT22;12318;51.262;7.066;2022-12-07T13:44:16;4.70;99.90
24162;DHT22;12318;51.262;7.066;2022-12-07T13:49:53;4.70;99.90
24162;DHT22;12318;51.262;7.066;2022-12-07T13:52:54;4.60;99.90
24162;DHT22;12318;51.262;7.066;2022-12-07T13:55:29;4.70;99.90
24162;DHT22;12318;51.262;7.066;2022-12-07T13:57:58;4.70;99.90
24162;DHT22;12318;51.262;7.066;2022-12-07T14:00:43;4.70;99.90
24162;DHT22;12318;51.262;7.066;2022-12-07T14:09:40;4.90;99.90
24162;DHT22;12318;51.262;7.066;2022-12-07T14:12:18;5.00;99.90
24162;DHT22;12318;51.262;7.066;2022-12-07T14:15:15;5.10;99.90
24162;DHT22;12318;51.262;7.066;2022-12-07T14:17:58;5.10;99.90
24162;DHT22;12318;51.262;7.066;2022-12-07T14:20:34;5.10;99.90
24162;DHT22;12318;51.262;7.066;2022-12-07T14:23:01;5.10;99.90
24162;DHT22;12318;51.262;7.066;2022-12-07T14:25:46;5.10;99.90
24162;DHT22;12318;51.262;7.066;2022-12-07T14:28:31;5.10;99.90
24162;DHT22;12318;51.262;7.066;2022-12-07T14:30:57;5.10;99.90
24162;DHT22;12318;51.262;7.066;2022-12-07T14:33:33;5.10;99.90
24162;DHT22;12318;51.262;7.066;2022-12-07T14:36:02;5.00;99.90
24162;DHT22;12318;51.262;7.066;2022-12-07T14:38:33;5.00;99.90
24162;DHT22;12318;51.262;7.066;2022-12-07T14:41:22;5.10;99.90
24162;DHT22;12318;51.262;7.066;2022-12-07T14:44:13;5.10;99.90
24162;DHT22;12318;51.262;7.066;2022-12-07T14:46:41;5.10;99.90
24162;DHT22;12318;51.262;7.066;2022-12-07T14:49:10;5.10;99.90
24162;DHT22;12318;51.262;7.066;2022-12-07T14:51:44;5.10;99.90
24162;DHT22;12318;51.262;7.066;2022-12-07T14:54:20;5.10;99.90
24162;DHT22;12318;51.262;7.066;2022-12-07T14:57:02;5.10;99.90
24162;DHT22;12318;51.262;7.066;2022-12-07T14:59:40;5.10;99.90
24162;DHT22;12318;51.262;7.066;2022-12-07T15:02:08;5.10;99.90
24162;DHT22;12318;51.262;7.066;2022-12-07T15:04:37;5.10;99.90
24162;DHT22;12318;51.262;7.066;2022-12-07T15:07:09;5.00;99.90
24162;DHT22;12318;51.262;7.066;2022-12-07T15:09:39;5.00;99.90
24162;DHT22;12318;51.262;7.066;2022-12-07T15:12:05;4.90;99.90
24162;DHT22;12318;51.262;7.066;2022-12-07T15:14:31;4.80;99.90
24162;DHT22;12318;51.262;7.066;2022-12-07T15:16:57;4.70;99.90
24162;DHT22;12318;51.262;7.066;2022-12-07T15:19:23;4.70;99.90
24162;DHT22;12318;51.262;7.066;2022-12-07T15:21:52;4.60;99.90
24162;DHT22;12318;51.262;7.066;2022-12-07T15:24:23;4.50;99.90
24162;DHT22;12318;51.262;7.066;2022-12-07T15:26:50;4.50;99.90
24162;DHT22;12318;51.262;7.066;2022-12-07T15:29:15;4.50;99.90
24162;DHT22;12318;51.262;7.066;2022-12-07T15:31:49;4.50;99.90
24162;DHT22;12318;51.262;7.066;2022-12-07T15:34:18;4.40;99.90
24162;DHT22;12318;51.262;7.066;2022-12-07T15:36:54;4.40;99.90
24162;DHT22;12318;51.262;7.066;2022-12-07T15:39:21;4.40;99.90
24162;DHT22;12318;51.262;7.066;2022-12-07T15:41:50;4.50;99.90
24162;DHT22;12318;51.262;7.066;2022-12-07T15:44:21;4.60;99.90
24162;DHT22;12318;51.262;7.066;2022-12-07T15:47:07;4.70;99.90
24162;DHT22;12318;51.262;7.066;2022-12-07T15:49:39;4.80;99.90
24162;DHT22;12318;51.262;7.066;2022-12-07T15:52:12;4.80;99.90
24162;DHT22;12318;51.262;7.066;2022-12-07T15:54:38;4.80;99.90
24162;DHT22;12318;51.262;7.066;2022-12-07T15:57:10;4.80;99.90
24162;DHT22;12318;51.262;7.066;2022-12-07T15:59:38;4.90;99.90
24162;DHT22;12318;51.262;7.066;2022-12-07T16:02:04;4.90;99.90
24162;DHT22;12318;51.262;7.066;2022-12-07T16:04:30;4.70;99.90
24162;DHT22;12318;51.262;7.066;2022-12-07T16:06:58;4.70;99.90
24162;DHT22;12318;51.262;7.066;2022-12-07T16:09:24;4.70;99.90
24162;DHT22;12318;51.262;7.066;2022-12-07T16:11:50;4.70;99.90
24162;DHT22;12318;51.262;7.066;2022-12-07T16:14:19;4.70;99.90
24162;DHT22;12318;51.262;7.066;2022-12-07T16:16:45;4.70;99.90
24162;DHT22;12318;51.262;7.066;2022-12-07T16:19:15;4.80;99.90
24162;DHT22;12318;51.262;7.066;2022-12-07T16:21:41;4.80;99.90
24162;DHT22;12318;51.262;7.066;2022-12-07T16:24:09;4.80;99.90
24162;DHT22;12318;51.262;7.066;2022-12-07T16:26:35;4.80;99.90
24162;DHT22;12318;51.262;7.066;2022-12-07T16:29:03;4.80;99.90
24162;DHT22;12318;51.262;7.066;2022-12-07T16:31:29;4.90;99.90
24162;DHT22;12318;51.262;7.066;2022-12-07T16:33:57;4.90;99.90
24162;DHT22;12318;51.262;7.066;2022-12-07T16:36:26;5.00;99.90
24162;DHT22;12318;51.262;7.066;2022-12-07T16:38:53;5.00;99.90
24162;DHT22;12318;51.262;7.066;2022-12-07T16:41:21;5.00;99.90
24162;DHT22;12318;51.262;7.066;2022-12-07T16:43:47;5.00;99.90
24162;DHT22;12318;51.262;7.066;2022-12-07T16:46:15;5.00;99.90
24162;DHT22;12318;51.262;7.066;2022-12-07T16:48:41;5.00;99.90
24162;DHT22;12318;51.262;7.066;2022-12-07T16:51:11;5.10;99.90
24162;DHT22;12318;51.262;7.066;2022-12-07T16:53:39;5.10;99.90
24162;DHT22;12318;51.262;7.066;2022-12-07T16:56:15;5.10;99.90
24162;DHT22;12318;51.262;7.066;2022-12-07T16:58:43;5.10;99.90
24162;DHT22;12318;51.262;7.066;2022-12-07T17:01:14;5.00;99.90
24162;DHT22;12318;51.262;7.066;2022-12-07T17:03:40;5.10;99.90
24162;DHT22;12318;51.262;7.066;2022-12-07T17:06:17;5.10;99.90
24162;DHT22;12318;51.262;7.066;2022-12-07T17:08:44;5.10;99.90
24162;DHT22;12318;51.262;7.066;2022-12-07T17:11:14;5.20;99.90
24162;DHT22;12318;51.262;7.066;2022-12-07T17:13:40;5.20;99.90
24162;DHT22;12318;51.262;7.066;2022-12-07T17:16:26;5.10;99.90
24162;DHT22;12318;51.262;7.066;2022-12-07T17:18:52;5.20;99.90
24162;DHT22;12318;51.262;7.066;2022-12-07T17:21:18;5.30;99.90
24162;DHT22;12318;51.262;7.066;2022-12-07T17:23:43;5.20;99.90
24162;DHT22;12318;51.262;7.066;2022-12-07T17:26:15;5.20;99.90
24162;DHT22;12318;51.262;7.066;2022-12-07T17:28:41;5.20;99.90
24162;DHT22;12318;51.262;7.066;2022-12-07T17:31:10;5.20;99.90
24162;DHT22;12318;51.262;7.066;2022-12-07T17:33:37;5.30;99.90
24162;DHT22;12318;51.262;7.066;2022-12-07T17:36:24;5.20;99.90
24162;DHT22;12318;51.262;7.066;2022-12-07T17:38:51;5.20;99.90
24162;DHT22;12318;51.262;7.066;2022-12-07T17:41:25;5.10;99.90
24162;DHT22;12318;51.262;7.066;2022-12-07T17:44:27;5.10;99.90
24162;DHT22;12318;51.262;7.066;2022-12-07T17:47:03;5.20;99.90
24162;DHT22;12318;51.262;7.066;2022-12-07T17:49:30;5.20;99.90
24162;DHT22;12318;51.262;7.066;2022-12-07T17:51:59;5.20;99.90
24162;DHT22;12318;51.262;7.066;2022-12-07T17:55:00;5.20;99.90
24162;DHT22;12318;51.262;7.066;2022-12-07T17:57:31;5.20;99.90
24162;DHT22;12318;51.262;7.066;2022-12-07T18:00:00;5.20;99.90
24162;DHT22;12318;51.262;7.066;2022-12-07T18:02:29;5.20;99.90
24162;DHT22;12318;51.262;7.066;2022-12-07T18:04:55;5.10;99.90
24162;DHT22;12318;51.262;7.066;2022-12-07T18:07:29;5.20;99.90
24162;DHT22;12318;51.262;7.066;2022-12-07T18:09:55;5.30;99.90
24162;DHT22;12318;51.262;7.066;2022-12-07T18:12:22;5.20;99.90
24162;DHT22;12318;51.262;7.066;2022-12-07T18:14:53;5.30;99.90
24162;DHT22;12318;51.262;7.066;2022-12-07T18:17:28;5.30;99.90
24162;DHT22;12318;51.262;7.066;2022-12-07T18:19:54;5.30;99.90
24162;DHT22;12318;51.262;7.066;2022-12-07T18:22:22;5.20;99.90
24162;DHT22;12318;51.262;7.066;2022-12-07T18:24:49;5.20;99.90
24162;DHT22;12318;51.262;7.066;2022-12-07T18:27:16;5.20;99.90